PWSweather.com
Personal Weather Stations
Station Observations
KJ4AJP
Beautiful Downtown Gardner, Martin, TN 38237

Beautiful Downtown GardnerMartin, TN 38237

Lat: 36.358, Lon: -88.8994

Elevation: 384.3

Station Type: TP1080WC

http://weather.mambm.com/

High Low Average
Temperature 48.2°F9.0°C 21.7°F-5.7°C 36.0°F2.2°C
Dew Point 38.5°F3.6°C 16.6°F-8.6°C 26.1°F-3.3°C
Winds 6.0 mph 9.7 kmh Calm Calm 2.0 mph SE3.2 kmh SE
Wind Gusts 15.2 mph24.5 kmh 1.6 mph2.6 kmh 7.0 mph11.3 kmh
Humidity 96% 48% 68%
Pressure 30.42 in1030.1 mb 29.90 in1012.5 mb -
Precipitation 0.13 in3.3 mm - -
Hour Temp Dew Point Humidity Winds Wind Gusts Pressure Precip Precip Rate Daily Precip Total
12:00 AM 23.5°F-4.7°C 18.3°F-7.6°C 80% Calm Calm 3.1 mph5.0 kmh 30.42 in1030.1 mb 0.00 in0.0 mm 0.00 in0.0 mm 0.00 in0.0 mm
12:15 AM 23.2°F-4.9°C 18.0°F-7.8°C 80% 0.7 mph SE1.1 kmh SE 3.1 mph5.0 kmh 30.41 in1029.8 mb 0.00 in0.0 mm 0.00 in0.0 mm 0.00 in0.0 mm
12:30 AM 22.6°F-5.2°C 17.4°F-8.1°C 80% 1.6 mph SE2.6 kmh SE 3.8 mph6.1 kmh 30.39 in1029.1 mb 0.00 in0.0 mm 0.00 in0.0 mm 0.00 in0.0 mm
12:45 AM 22.5°F-5.3°C 17.3°F-8.2°C 80% 1.6 mph SE2.6 kmh SE 4.5 mph7.2 kmh 30.39 in1029.1 mb 0.00 in0.0 mm 0.00 in0.0 mm 0.00 in0.0 mm
01:00 AM 22.1°F-5.5°C 16.6°F-8.6°C 79% Calm Calm 3.8 mph6.1 kmh 30.39 in1029.1 mb 0.00 in0.0 mm 0.00 in0.0 mm 0.00 in0.0 mm
01:15 AM 22.1°F-5.5°C 16.9°F-8.4°C 80% 1.6 mph SSE2.6 kmh SSE 3.1 mph5.0 kmh 30.39 in1029.1 mb 0.00 in0.0 mm 0.00 in0.0 mm 0.00 in0.0 mm
01:30 AM 21.7°F-5.7°C 16.6°F-8.6°C 80% 2.2 mph SE3.5 kmh SE 3.8 mph6.1 kmh 30.38 in1028.8 mb 0.00 in0.0 mm 0.00 in0.0 mm 0.00 in0.0 mm
01:45 AM 22.1°F-5.5°C 16.9°F-8.4°C 80% 0.7 mph SE1.1 kmh SE 4.5 mph7.2 kmh 30.38 in1028.8 mb 0.00 in0.0 mm 0.00 in0.0 mm 0.00 in0.0 mm
02:00 AM 22.6°F-5.2°C 17.4°F-8.1°C 80% 0.7 mph S1.1 kmh S 3.1 mph5.0 kmh 30.38 in1028.8 mb 0.00 in0.0 mm 0.00 in0.0 mm 0.00 in0.0 mm
02:15 AM 23.5°F-4.7°C 18.6°F-7.4°C 81% 3.1 mph SE5.0 kmh SE 6.0 mph9.7 kmh 30.38 in1028.8 mb 0.00 in0.0 mm 0.00 in0.0 mm 0.00 in0.0 mm
02:30 AM 24.6°F-4.1°C 19.1°F-7.2°C 79% 1.6 mph SE2.6 kmh SE 7.6 mph12.2 kmh 30.36 in1028.1 mb 0.00 in0.0 mm 0.00 in0.0 mm 0.00 in0.0 mm
02:45 AM 25.3°F-3.7°C 19.5°F-6.9°C 78% 0.7 mph SSE1.1 kmh SSE 8.3 mph13.4 kmh 30.37 in1028.4 mb 0.00 in0.0 mm 0.00 in0.0 mm 0.00 in0.0 mm
03:00 AM 25.7°F-3.5°C 19.8°F-6.8°C 78% 1.6 mph SSE2.6 kmh SSE 6.0 mph9.7 kmh 30.37 in1028.4 mb 0.00 in0.0 mm 0.00 in0.0 mm 0.00 in0.0 mm
03:15 AM 25.9°F-3.4°C 20.0°F-6.7°C 78% 3.1 mph SE5.0 kmh SE 6.9 mph11.1 kmh 30.36 in1028.1 mb 0.00 in0.0 mm 0.00 in0.0 mm 0.00 in0.0 mm
03:30 AM 26.2°F-3.2°C 20.0°F-6.7°C 77% 3.1 mph SE5.0 kmh SE 7.6 mph12.2 kmh 30.36 in1028.1 mb 0.00 in0.0 mm 0.00 in0.0 mm 0.00 in0.0 mm
03:45 AM 26.2°F-3.2°C 20.0°F-6.7°C 77% 2.2 mph SE3.5 kmh SE 6.0 mph9.7 kmh 30.35 in1027.8 mb 0.00 in0.0 mm 0.00 in0.0 mm 0.00 in0.0 mm
04:00 AM 26.1°F-3.3°C 19.9°F-6.7°C 77% Calm Calm 5.4 mph8.7 kmh 30.35 in1027.8 mb 0.00 in0.0 mm 0.00 in0.0 mm 0.00 in0.0 mm
04:15 AM 26.1°F-3.3°C 19.6°F-6.9°C 76% Calm Calm 5.4 mph8.7 kmh 30.34 in1027.4 mb 0.00 in0.0 mm 0.00 in0.0 mm 0.00 in0.0 mm
04:30 AM 25.9°F-3.4°C 19.7°F-6.8°C 77% 1.6 mph SE2.6 kmh SE 3.8 mph6.1 kmh 30.34 in1027.4 mb 0.00 in0.0 mm 0.00 in0.0 mm 0.00 in0.0 mm
04:45 AM 26.1°F-3.3°C 19.6°F-6.9°C 76% 0.7 mph SE1.1 kmh SE 4.5 mph7.2 kmh 30.34 in1027.4 mb 0.00 in0.0 mm 0.00 in0.0 mm 0.00 in0.0 mm
05:00 AM 26.1°F-3.3°C 19.9°F-6.7°C 77% 0.7 mph SE1.1 kmh SE 3.1 mph5.0 kmh 30.34 in1027.4 mb 0.00 in0.0 mm 0.00 in0.0 mm 0.00 in0.0 mm
05:15 AM 26.2°F-3.2°C 19.7°F-6.8°C 76% 0.7 mph NE1.1 kmh NE 3.1 mph5.0 kmh 30.34 in1027.4 mb 0.00 in0.0 mm 0.00 in0.0 mm 0.00 in0.0 mm
05:30 AM 26.2°F-3.2°C 19.7°F-6.8°C 76% Calm Calm 1.6 mph2.6 kmh 30.34 in1027.4 mb 0.00 in0.0 mm 0.00 in0.0 mm 0.00 in0.0 mm
05:45 AM 26.2°F-3.2°C 20.0°F-6.7°C 77% Calm Calm 2.2 mph3.5 kmh 30.34 in1027.4 mb 0.00 in0.0 mm 0.00 in0.0 mm 0.00 in0.0 mm
06:00 AM 26.2°F-3.2°C 20.0°F-6.7°C 77% Calm Calm 1.6 mph2.6 kmh 30.34 in1027.4 mb 0.00 in0.0 mm 0.00 in0.0 mm 0.00 in0.0 mm
06:15 AM 26.2°F-3.2°C 20.3°F-6.5°C 78% 1.6 mph E2.6 kmh E 2.2 mph3.5 kmh 30.33 in1027.1 mb 0.00 in0.0 mm 0.00 in0.0 mm 0.00 in0.0 mm
06:30 AM 26.2°F-3.2°C 20.0°F-6.7°C 77% 0.7 mph E1.1 kmh E 2.2 mph3.5 kmh 30.34 in1027.4 mb 0.00 in0.0 mm 0.00 in0.0 mm 0.00 in0.0 mm
06:45 AM 26.2°F-3.2°C 20.3°F-6.5°C 78% 0.7 mph E1.1 kmh E 2.2 mph3.5 kmh 30.33 in1027.1 mb 0.00 in0.0 mm 0.00 in0.0 mm 0.00 in0.0 mm
07:00 AM 26.4°F-3.1°C 20.5°F-6.4°C 78% 0.7 mph E1.1 kmh E 2.2 mph3.5 kmh 30.33 in1027.1 mb 0.00 in0.0 mm 0.00 in0.0 mm 0.00 in0.0 mm
07:15 AM 26.6°F-3.0°C 20.4°F-6.4°C 77% 0.7 mph E1.1 kmh E 3.1 mph5.0 kmh 30.33 in1027.1 mb 0.00 in0.0 mm 0.00 in0.0 mm 0.00 in0.0 mm
07:30 AM 26.8°F-2.9°C 20.6°F-6.3°C 77% 1.6 mph E2.6 kmh E 3.8 mph6.1 kmh 30.32 in1026.8 mb 0.00 in0.0 mm 0.00 in0.0 mm 0.00 in0.0 mm
07:45 AM 27.5°F-2.5°C 21.0°F-6.1°C 76% 3.8 mph SE6.1 kmh SE 6.9 mph11.1 kmh 30.31 in1026.4 mb 0.00 in0.0 mm 0.00 in0.0 mm 0.00 in0.0 mm
08:00 AM 28.6°F-1.9°C 21.7°F-5.7°C 75% 2.2 mph SE3.5 kmh SE 7.6 mph12.2 kmh 30.31 in1026.4 mb 0.00 in0.0 mm 0.00 in0.0 mm 0.00 in0.0 mm
08:15 AM 29.5°F-1.4°C 21.9°F-5.6°C 73% 3.1 mph ESE5.0 kmh ESE 7.6 mph12.2 kmh 30.30 in1026.1 mb 0.00 in0.0 mm 0.00 in0.0 mm 0.00 in0.0 mm
08:30 AM 30.0°F-1.1°C 22.4°F-5.3°C 73% 2.2 mph SE3.5 kmh SE 5.4 mph8.7 kmh 30.31 in1026.4 mb 0.00 in0.0 mm 0.00 in0.0 mm 0.00 in0.0 mm
08:45 AM 30.6°F-0.8°C 23.0°F-5.0°C 73% 3.1 mph SE5.0 kmh SE 7.6 mph12.2 kmh 30.31 in1026.4 mb 0.00 in0.0 mm 0.00 in0.0 mm 0.00 in0.0 mm
09:00 AM 31.1°F-0.5°C 23.2°F-4.9°C 72% 3.1 mph SE5.0 kmh SE 7.6 mph12.2 kmh 30.31 in1026.4 mb 0.00 in0.0 mm 0.00 in0.0 mm 0.00 in0.0 mm
09:15 AM 31.6°F-0.2°C 23.3°F-4.8°C 71% 3.8 mph SE6.1 kmh SE 7.6 mph12.2 kmh 30.30 in1026.1 mb 0.00 in0.0 mm 0.00 in0.0 mm 0.00 in0.0 mm
09:30 AM 32.4°F0.2°C 24.0°F-4.4°C 71% 2.2 mph SSE3.5 kmh SSE 7.6 mph12.2 kmh 30.30 in1026.1 mb 0.00 in0.0 mm 0.00 in0.0 mm 0.00 in0.0 mm
09:45 AM 33.3°F0.7°C 24.6°F-4.1°C 70% 4.5 mph SE7.2 kmh SE 6.9 mph11.1 kmh 30.30 in1026.1 mb 0.00 in0.0 mm 0.00 in0.0 mm 0.00 in0.0 mm
10:00 AM 33.8°F1.0°C 24.4°F-4.2°C 68% 1.6 mph SE2.6 kmh SE 6.9 mph11.1 kmh 30.30 in1026.1 mb 0.00 in0.0 mm 0.00 in0.0 mm 0.00 in0.0 mm
10:15 AM 34.3°F1.3°C 24.9°F-3.9°C 68% 1.6 mph SSE2.6 kmh SSE 6.9 mph11.1 kmh 30.30 in1026.1 mb 0.00 in0.0 mm 0.00 in0.0 mm 0.00 in0.0 mm
10:30 AM 35.1°F1.7°C 24.9°F-3.9°C 66% 2.2 mph SSE3.5 kmh SSE 6.9 mph11.1 kmh 30.29 in1025.7 mb 0.00 in0.0 mm 0.00 in0.0 mm 0.00 in0.0 mm
10:45 AM 36.0°F2.2°C 25.4°F-3.7°C 65% 2.2 mph SE3.5 kmh SE 6.9 mph11.1 kmh 30.28 in1025.4 mb 0.00 in0.0 mm 0.00 in0.0 mm 0.00 in0.0 mm
11:00 AM 36.7°F2.6°C 25.7°F-3.5°C 64% 2.2 mph SE3.5 kmh SE 6.0 mph9.7 kmh 30.27 in1025.1 mb 0.00 in0.0 mm 0.00 in0.0 mm 0.00 in0.0 mm
11:15 AM 37.8°F3.2°C 26.3°F-3.2°C 63% 6.0 mph SSE9.7 kmh SSE 9.2 mph14.8 kmh 30.26 in1024.7 mb 0.00 in0.0 mm 0.00 in0.0 mm 0.00 in0.0 mm
11:30 AM 38.5°F3.6°C 26.2°F-3.2°C 61% 1.6 mph S2.6 kmh S 6.9 mph11.1 kmh 30.26 in1024.7 mb 0.00 in0.0 mm 0.00 in0.0 mm 0.00 in0.0 mm
11:45 AM 39.6°F4.2°C 26.8°F-2.9°C 60% 2.2 mph SSE3.5 kmh SSE 6.9 mph11.1 kmh 30.25 in1024.4 mb 0.00 in0.0 mm 0.00 in0.0 mm 0.00 in0.0 mm
12:00 PM 39.4°F4.1°C 26.3°F-3.2°C 59% 5.4 mph SE8.7 kmh SE 7.6 mph12.2 kmh 30.22 in1023.4 mb 0.00 in0.0 mm 0.00 in0.0 mm 0.00 in0.0 mm
12:15 PM 40.8°F4.9°C 27.6°F-2.4°C 59% 4.5 mph SE7.2 kmh SE 8.3 mph13.4 kmh 30.21 in1023.0 mb 0.00 in0.0 mm 0.00 in0.0 mm 0.00 in0.0 mm
12:30 PM 41.9°F5.5°C 27.8°F-2.3°C 57% 3.8 mph SSE6.1 kmh SSE 6.9 mph11.1 kmh 30.19 in1022.4 mb 0.00 in0.0 mm 0.00 in0.0 mm 0.00 in0.0 mm
12:45 PM 42.1°F5.6°C 27.5°F-2.5°C 56% 3.1 mph S5.0 kmh S 9.2 mph14.8 kmh 30.18 in1022.0 mb 0.00 in0.0 mm 0.00 in0.0 mm 0.00 in0.0 mm
01:00 PM 42.3°F5.7°C 27.7°F-2.4°C 56% 3.8 mph S6.1 kmh S 6.9 mph11.1 kmh 30.16 in1021.3 mb 0.00 in0.0 mm 0.00 in0.0 mm 0.00 in0.0 mm
01:15 PM 42.4°F5.8°C 27.9°F-2.3°C 56% 3.1 mph SSE5.0 kmh SSE 6.0 mph9.7 kmh 30.14 in1020.7 mb 0.00 in0.0 mm 0.00 in0.0 mm 0.00 in0.0 mm
01:30 PM 42.6°F5.9°C 27.6°F-2.4°C 55% Calm Calm 7.6 mph12.2 kmh 30.14 in1020.7 mb 0.00 in0.0 mm 0.00 in0.0 mm 0.00 in0.0 mm
01:45 PM 43.7°F6.5°C 28.6°F-1.9°C 55% 3.8 mph SSE6.1 kmh SSE 7.6 mph12.2 kmh 30.12 in1020.0 mb 0.00 in0.0 mm 0.00 in0.0 mm 0.00 in0.0 mm
02:00 PM 44.4°F6.9°C 28.8°F-1.8°C 54% 3.1 mph SE5.0 kmh SE 8.3 mph13.4 kmh 30.11 in1019.6 mb 0.00 in0.0 mm 0.00 in0.0 mm 0.00 in0.0 mm
02:15 PM 45.1°F7.3°C 29.0°F-1.7°C 53% 2.2 mph SSE3.5 kmh SSE 8.3 mph13.4 kmh 30.09 in1019.0 mb 0.00 in0.0 mm 0.00 in0.0 mm 0.00 in0.0 mm
02:30 PM 45.7°F7.6°C 29.5°F-1.4°C 53% 3.8 mph SSE6.1 kmh SSE 11.4 mph18.3 kmh 30.09 in1019.0 mb 0.00 in0.0 mm 0.00 in0.0 mm 0.00 in0.0 mm
02:45 PM 45.7°F7.6°C 29.5°F-1.4°C 53% 0.7 mph SE1.1 kmh SE 6.9 mph11.1 kmh 30.07 in1018.3 mb 0.00 in0.0 mm 0.00 in0.0 mm 0.00 in0.0 mm
03:00 PM 45.7°F7.6°C 29.5°F-1.4°C 53% 1.6 mph SSE2.6 kmh SSE 6.9 mph11.1 kmh 30.07 in1018.3 mb 0.00 in0.0 mm 0.00 in0.0 mm 0.00 in0.0 mm
03:15 PM 45.7°F7.6°C 29.5°F-1.4°C 53% 1.6 mph SE2.6 kmh SE 6.9 mph11.1 kmh 30.06 in1017.9 mb 0.00 in0.0 mm 0.00 in0.0 mm 0.00 in0.0 mm
03:30 PM 46.2°F7.9°C 30.0°F-1.1°C 53% 2.2 mph SE3.5 kmh SE 6.9 mph11.1 kmh 30.05 in1017.6 mb 0.00 in0.0 mm 0.00 in0.0 mm 0.00 in0.0 mm
03:45 PM 46.4°F8.0°C 30.2°F-1.0°C 53% 3.1 mph SE5.0 kmh SE 6.0 mph9.7 kmh 30.04 in1017.3 mb 0.00 in0.0 mm 0.00 in0.0 mm 0.00 in0.0 mm
04:00 PM 46.8°F8.2°C 30.5°F-0.8°C 53% 0.7 mph SE1.1 kmh SE 5.4 mph8.7 kmh 30.03 in1016.9 mb 0.00 in0.0 mm 0.00 in0.0 mm 0.00 in0.0 mm
04:15 PM 46.9°F8.3°C 30.2°F-1.0°C 52% 1.6 mph SE2.6 kmh SE 5.4 mph8.7 kmh 30.02 in1016.6 mb 0.00 in0.0 mm 0.00 in0.0 mm 0.00 in0.0 mm
04:30 PM 46.8°F8.2°C 30.1°F-1.1°C 52% 3.1 mph ESE5.0 kmh ESE 5.4 mph8.7 kmh 30.00 in1015.9 mb 0.00 in0.0 mm 0.00 in0.0 mm 0.00 in0.0 mm
04:45 PM 46.4°F8.0°C 30.2°F-1.0°C 53% Calm Calm 4.5 mph7.2 kmh 30.00 in1015.9 mb 0.00 in0.0 mm 0.00 in0.0 mm 0.00 in0.0 mm
05:00 PM 46.2°F7.9°C 30.5°F-0.8°C 54% 0.7 mph SE1.1 kmh SE 6.0 mph9.7 kmh 29.99 in1015.6 mb 0.00 in0.0 mm 0.00 in0.0 mm 0.00 in0.0 mm
05:15 PM 45.9°F7.7°C 29.7°F-1.3°C 53% 0.7 mph SE1.1 kmh SE 3.8 mph6.1 kmh 29.98 in1015.2 mb 0.00 in0.0 mm 0.00 in0.0 mm 0.00 in0.0 mm
05:30 PM 45.5°F7.5°C 29.8°F-1.2°C 54% 1.6 mph ESE2.6 kmh ESE 3.8 mph6.1 kmh 29.97 in1014.9 mb 0.00 in0.0 mm 0.00 in0.0 mm 0.00 in0.0 mm
05:45 PM 45.1°F7.3°C 29.9°F-1.2°C 55% Calm Calm 3.8 mph6.1 kmh 29.98 in1015.2 mb 0.00 in0.0 mm 0.00 in0.0 mm 0.00 in0.0 mm
06:00 PM 44.8°F7.1°C 30.1°F-1.1°C 56% 0.7 mph E1.1 kmh E 3.1 mph5.0 kmh 29.98 in1015.2 mb 0.00 in0.0 mm 0.00 in0.0 mm 0.00 in0.0 mm
06:15 PM 44.2°F6.8°C 30.8°F-0.7°C 59% 1.6 mph SE2.6 kmh SE 3.8 mph6.1 kmh 29.96 in1014.6 mb 0.00 in0.0 mm 0.00 in0.0 mm 0.00 in0.0 mm
06:30 PM 44.1°F6.7°C 29.8°F-1.2°C 57% 1.6 mph SE2.6 kmh SE 4.5 mph7.2 kmh 29.96 in1014.6 mb 0.00 in0.0 mm 0.00 in0.0 mm 0.00 in0.0 mm
06:45 PM 44.1°F6.7°C 29.8°F-1.2°C 57% 2.2 mph SSE3.5 kmh SSE 6.9 mph11.1 kmh 29.95 in1014.2 mb 0.00 in0.0 mm 0.00 in0.0 mm 0.00 in0.0 mm
07:00 PM 44.8°F7.1°C 30.1°F-1.1°C 56% 5.4 mph SE8.7 kmh SE 9.8 mph15.8 kmh 29.94 in1013.9 mb 0.00 in0.0 mm 0.00 in0.0 mm 0.00 in0.0 mm
07:15 PM 46.6°F8.1°C 30.8°F-0.7°C 54% 2.2 mph SSE3.5 kmh SSE 10.7 mph17.2 kmh 29.93 in1013.5 mb 0.00 in0.0 mm 0.00 in0.0 mm 0.00 in0.0 mm
07:30 PM 46.9°F8.3°C 30.2°F-1.0°C 52% 5.4 mph SSE8.7 kmh SSE 14.5 mph23.3 kmh 29.92 in1013.2 mb 0.00 in0.0 mm 0.00 in0.0 mm 0.00 in0.0 mm
07:45 PM 47.7°F8.7°C 29.9°F-1.2°C 50% 6.0 mph S9.7 kmh S 12.1 mph19.5 kmh 29.93 in1013.5 mb 0.00 in0.0 mm 0.00 in0.0 mm 0.00 in0.0 mm
08:00 PM 48.2°F9.0°C 29.9°F-1.2°C 49% 5.4 mph S8.7 kmh S 15.2 mph24.5 kmh 29.91 in1012.9 mb 0.00 in0.0 mm 0.00 in0.0 mm 0.00 in0.0 mm
08:15 PM 48.2°F9.0°C 29.4°F-1.4°C 48% 5.4 mph S8.7 kmh S 12.1 mph19.5 kmh 29.92 in1013.2 mb 0.00 in0.0 mm 0.00 in0.0 mm 0.00 in0.0 mm
08:30 PM 47.8°F8.8°C 30.6°F-0.8°C 51% 5.4 mph SSE8.7 kmh SSE 13.0 mph20.9 kmh 29.91 in1012.9 mb 0.00 in0.0 mm 0.00 in0.0 mm 0.00 in0.0 mm
08:45 PM 46.9°F8.3°C 32.1°F0.1°C 56% 3.8 mph S6.1 kmh S 13.6 mph21.9 kmh 29.91 in1012.9 mb 0.00 in0.0 mm 0.00 in0.0 mm 0.00 in0.0 mm
09:00 PM 45.5°F7.5°C 33.6°F0.9°C 63% 2.2 mph SSE3.5 kmh SSE 9.8 mph15.8 kmh 29.91 in1012.9 mb 0.01 in0.3 mm 0.01 in0.3 mm 0.01 in0.3 mm
09:15 PM 44.1°F6.7°C 34.9°F1.6°C 70% 0.7 mph SSW1.1 kmh SSW 5.4 mph8.7 kmh 29.92 in1013.2 mb 0.01 in0.3 mm 0.00 in0.0 mm 0.01 in0.3 mm
09:30 PM 42.6°F5.9°C 35.6°F2.0°C 76% 2.2 mph S3.5 kmh S 4.5 mph7.2 kmh 29.94 in1013.9 mb 0.05 in1.3 mm 0.16 in4.1 mm 0.05 in1.3 mm
09:45 PM 41.7°F5.4°C 36.0°F2.2°C 80% 3.8 mph SSW6.1 kmh SSW 6.9 mph11.1 kmh 29.94 in1013.9 mb 0.07 in1.8 mm 0.08 in2.0 mm 0.07 in1.8 mm
10:00 PM 41.0°F5.0°C 36.5°F2.5°C 84% 3.1 mph S5.0 kmh S 8.3 mph13.4 kmh 29.94 in1013.9 mb 0.08 in2.0 mm 0.01 in0.3 mm 0.09 in2.3 mm
10:15 PM 40.3°F4.6°C 36.7°F2.6°C 87% 5.4 mph S8.7 kmh S 10.7 mph17.2 kmh 29.93 in1013.5 mb 0.11 in2.8 mm 0.12 in3.0 mm 0.12 in3.0 mm
10:30 PM 40.1°F4.5°C 37.4°F3.0°C 90% 6.0 mph S9.7 kmh S 10.7 mph17.2 kmh 29.93 in1013.5 mb 0.08 in2.0 mm 0.00 in0.0 mm 0.13 in3.3 mm
10:45 PM 40.1°F4.5°C 37.7°F3.2°C 91% 3.1 mph S5.0 kmh S 9.2 mph14.8 kmh 29.92 in1013.2 mb 0.06 in1.5 mm 0.00 in0.0 mm 0.13 in3.3 mm
11:00 PM 39.9°F4.4°C 38.1°F3.4°C 93% 4.5 mph S7.2 kmh S 11.4 mph18.3 kmh 29.93 in1013.5 mb 0.04 in1.0 mm 0.00 in0.0 mm 0.13 in3.3 mm
11:15 PM 39.7°F4.3°C 38.2°F3.4°C 94% 0.7 mph S1.1 kmh S 9.8 mph15.8 kmh 29.90 in1012.5 mb 0.01 in0.3 mm 0.00 in0.0 mm 0.13 in3.3 mm
11:30 PM 39.7°F4.3°C 38.4°F3.6°C 95% 2.2 mph S3.5 kmh S 7.6 mph12.2 kmh 29.91 in1012.9 mb 0.00 in0.0 mm 0.00 in0.0 mm 0.13 in3.3 mm
11:45 PM 39.6°F4.2°C 38.5°F3.6°C 96% 0.7 mph NW1.1 kmh NW 2.2 mph3.5 kmh 29.94 in1013.9 mb 0.00 in0.0 mm 0.00 in0.0 mm 0.13 in3.3 mm